Portada
METAR-TAF:

METAR-TAF

Aeroports :

Saint-Denis, Reunió

latitud: 20-53S, longitud: 055-31E, altitud: 21 m

Observació

L'informe es va fer fa 12 minuts, a les 20:00 UTC
Vent 7 kt del Est/Sud-Est
Temperatura 26°C
Humitat 74%
Pressió 1014 hPa
Visibilitat 10 km o més

METAR: FMEE 202000Z AUTO 11007KT 9999 BKN052/// OVC220/// ///CB 26/21 Q1014 TEMPO 3000 SHRA FEW030 SCT050

Hora: 00:12 (20:12 UTC)

Pronòstic

L'informe es va fer fa 3 hores i 12 minuts, a les 17:00 UTC
Pronòstic vàlid del 20 a les 18 UTC al 21 a les 24 UTC
Vent 10 kt del Est/Sud-Est
Visibilitat 10 km o més
Escasses núvols a una alçada de 3000 ft
Núvols disperses a una alçada de 5000 ft
Probabilitat 40% :
Temporalment
l' 20 a les 21 UTC al 21 a les 12 UTC
Visibilitat: 3000 m
Cel ennuvolat a una alçada de 2000 ft, Cumulonimbus.
xàfecs de pluja

TAF: FMEE 201700Z 2018/2124 12010KT 9999 FEW030 SCT050 PROB40 TEMPO 2021/2112 3000 SHRA BKN020CB

Observacions i pronòstics meteorològics de més de 4000 aeroports (METAR i TAF).

Les estacions disponibles són els punts grocs i vermells al mapa.

Posi el ratolí al punt desitjat per veure el nom de l'estació.

Feu clic per veure les observacions i els pronòstics meteorològics.

Per canviar el mapa: feu clic els botons verds amb una creu de color negre per apropar; al botó verd amb un guió per allunyar la imatge; o en les fletxes verdes per a mapes adjacents.


METAR-TAF: